createdAt,value
2022-08-27T00:03:29.976Z,99899.19
2022-08-27T00:13:33.382Z,99898.72
2022-08-27T00:23:38.418Z,99906.03
2022-08-27T00:33:41.822Z,99901.66
2022-08-27T00:43:49.187Z,99910.13
2022-08-27T00:53:53.537Z,99906.00
2022-08-27T01:04:06.439Z,99910.00
2022-08-27T01:14:10.159Z,99916.56
2022-08-27T01:24:30.591Z,99934.00
2022-08-27T01:34:33.914Z,99924.56
2022-08-27T01:44:49.264Z,99937.72
2022-08-27T01:54:52.814Z,99925.78
2022-08-27T02:04:57.396Z,99933.22
2022-08-27T02:15:01.564Z,99936.03
2022-08-27T02:25:10.234Z,99939.75
2022-08-27T02:35:13.959Z,99930.69
2022-08-27T02:45:20.461Z,99926.75
2022-08-27T02:55:23.960Z,99920.97
2022-08-27T03:05:29.235Z,99926.78
2022-08-27T03:15:32.595Z,99922.50
2022-08-27T03:25:37.379Z,99921.41
2022-08-27T03:35:40.783Z,99928.41
2022-08-27T03:45:48.362Z,99925.84
2022-08-27T03:56:04.761Z,99926.34
2022-08-27T04:06:09.574Z,99926.78
2022-08-27T04:16:12.836Z,99929.88
2022-08-27T04:26:17.445Z,99936.28
2022-08-27T04:36:21.426Z,99934.41
2022-08-27T04:46:28.732Z,99932.47
2022-08-27T04:56:32.529Z,99938.53
2022-08-27T05:06:37.735Z,99926.13
2022-08-27T05:16:41.108Z,99934.13
2022-08-27T05:26:45.920Z,99945.25
2022-08-27T05:36:49.350Z,99950.09
2022-08-27T05:46:54.168Z,99943.59
2022-08-27T05:56:57.306Z,99947.06
2022-08-27T06:07:03.115Z,99931.06
2022-08-27T06:17:07.777Z,99933.41
2022-08-27T06:27:14.538Z,99954.56
2022-08-27T06:37:17.701Z,99947.50
2022-08-27T06:47:22.367Z,99953.94
2022-08-27T06:57:25.607Z,99961.28
2022-08-27T07:07:34.457Z,99968.97
2022-08-27T07:17:41.940Z,99978.81
2022-08-27T07:27:46.833Z,99989.84
2022-08-27T07:37:50.015Z,99996.75
2022-08-27T07:47:54.912Z,99991.31
2022-08-27T07:57:58.114Z,99992.91
2022-08-27T08:08:02.775Z,99988.66
2022-08-27T08:18:06.116Z,99991.31
2022-08-27T08:28:11.650Z,99981.91
2022-08-27T08:38:15.121Z,99982.56
2022-08-27T08:48:22.363Z,99980.75
2022-08-27T08:58:34.567Z,99973.13
2022-08-27T09:08:42.102Z,99975.78
2022-08-27T09:18:45.795Z,99973.25
2022-08-27T09:29:20.111Z,99954.09
2022-08-27T09:39:29.707Z,99952.53
2022-08-27T09:49:36.901Z,99938.19
2022-08-27T09:59:42.790Z,99940.87
2022-08-27T10:09:52.083Z,99937.16
2022-08-27T10:20:03.349Z,99933.44
2022-08-27T10:30:10.230Z,99933.25
2022-08-27T10:40:18.459Z,99934.50
2022-08-27T10:50:29.048Z,99932.72
2022-08-27T11:00:41.213Z,99923.34
2022-08-27T11:10:48.997Z,99912.06
2022-08-27T11:20:55.488Z,99917.28
2022-08-27T11:31:04.989Z,99908.59
2022-08-27T11:41:33.353Z,99900.50
2022-08-27T11:51:58.652Z,99890.97
2022-08-27T12:02:14.441Z,99883.03
2022-08-27T12:12:23.371Z,99874.69
2022-08-27T12:22:56.100Z,99857.72
2022-08-27T12:33:05.749Z,99849.72
2022-08-27T12:43:13.640Z,99838.72
2022-08-27T12:53:36.355Z,99813.66
2022-08-27T13:03:41.350Z,99813.22
2022-08-27T13:13:46.201Z,99802.22
2022-08-27T13:23:55.195Z,99806.00
2022-08-27T13:34:00.200Z,99803.97
2022-08-27T13:44:08.539Z,99803.84
2022-08-27T13:54:14.314Z,99804.03
2022-08-27T14:04:24.025Z,99805.72
2022-08-27T14:14:28.817Z,99814.38
2022-08-27T14:24:32.014Z,99807.91
2022-08-27T14:34:37.085Z,99805.66
2022-08-27T14:44:40.528Z,99798.53
2022-08-27T14:54:45.308Z,99804.97
2022-08-27T15:04:48.894Z,99807.12
2022-08-27T15:14:53.494Z,99803.97
2022-08-27T15:24:57.855Z,99814.31
2022-08-27T15:35:05.122Z,99814.56
2022-08-27T15:45:09.943Z,99810.53
2022-08-27T15:55:22.533Z,99813.09
2022-08-27T16:05:32.948Z,99809.00
2022-08-27T16:15:39.541Z,99812.06
2022-08-27T16:25:43.127Z,99817.16
2022-08-27T16:35:48.369Z,99809.06
2022-08-27T16:45:52.843Z,99809.97
2022-08-27T16:55:57.561Z,99820.84
2022-08-27T17:06:00.733Z,99825.81
2022-08-27T17:16:07.306Z,99835.25
2022-08-27T17:26:12.322Z,99853.41
2022-08-27T17:36:16.981Z,99864.69
2022-08-27T17:46:20.270Z,99869.91
2022-08-27T17:56:25.069Z,99886.37
2022-08-27T18:06:31.097Z,99909.72
2022-08-27T18:16:36.080Z,99926.78
2022-08-27T18:26:39.926Z,99939.19
2022-08-27T18:36:44.549Z,99946.38
2022-08-27T18:46:48.161Z,99964.13
2022-08-27T18:56:52.720Z,99969.63
2022-08-27T19:06:55.856Z,99974.16
2022-08-27T19:17:03.326Z,99969.91
2022-08-27T19:27:07.397Z,99954.44
2022-08-27T19:37:22.158Z,99960.16
2022-08-27T19:47:26.029Z,99952.84
2022-08-27T19:57:30.707Z,99949.84
2022-08-27T20:07:35.216Z,99955.41
2022-08-27T20:17:39.858Z,99939.72
2022-08-27T20:27:43.112Z,99950.75
2022-08-27T20:37:47.953Z,99956.37
2022-08-27T20:47:51.584Z,99967.19
2022-08-27T20:58:13.855Z,99968.06
2022-08-27T21:08:19.314Z,99971.13
2022-08-27T21:18:29.213Z,99976.09
2022-08-27T21:28:32.896Z,99988.94
2022-08-27T21:38:37.463Z,99996.00
2022-08-27T21:48:40.623Z,100007.06
2022-08-27T21:58:45.240Z,100003.41
2022-08-27T22:08:48.976Z,99995.41
2022-08-27T22:18:54.689Z,100005.63
2022-08-27T22:28:58.410Z,100009.97
2022-08-27T22:39:04.088Z,100000.78
2022-08-27T22:49:07.393Z,99987.94
2022-08-27T22:59:11.947Z,99990.38
2022-08-27T23:09:15.200Z,99987.56
2022-08-27T23:19:19.945Z,99988.38
2022-08-27T23:29:23.238Z,99990.06
2022-08-27T23:39:27.834Z,99991.59
2022-08-27T23:49:32.281Z,100007.56
2022-08-27T23:59:36.878Z,100006.44
